sensor_id;sensor_type;location;lat;lon;timestamp;P1;durP1;ratioP1;P2;durP2;ratioP2
21162;SDS011;10739;52.198;20.908;2024-02-15T00:01:51;22.77;;;8.50;;
21162;SDS011;10739;52.198;20.908;2024-02-15T00:04:17;19.45;;;8.60;;
21162;SDS011;10739;52.198;20.908;2024-02-15T00:06:45;20.88;;;9.38;;
21162;SDS011;10739;52.198;20.908;2024-02-15T00:09:11;14.43;;;8.05;;
21162;SDS011;10739;52.198;20.908;2024-02-15T00:11:37;22.23;;;8.73;;
21162;SDS011;10739;52.198;20.908;2024-02-15T00:14:04;17.45;;;8.52;;
21162;SDS011;10739;52.198;20.908;2024-02-15T00:16:31;16.30;;;8.35;;
21162;SDS011;10739;52.198;20.908;2024-02-15T00:18:57;20.80;;;9.10;;
21162;SDS011;10739;52.198;20.908;2024-02-15T00:21:23;21.23;;;9.18;;
21162;SDS011;10739;52.198;20.908;2024-02-15T00:23:49;16.77;;;8.55;;
21162;SDS011;10739;52.198;20.908;2024-02-15T00:26:15;20.80;;;9.02;;
21162;SDS011;10739;52.198;20.908;2024-02-15T00:28:41;17.40;;;8.55;;
21162;SDS011;10739;52.198;20.908;2024-02-15T00:31:08;19.60;;;8.30;;
21162;SDS011;10739;52.198;20.908;2024-02-15T00:33:34;18.60;;;8.15;;
21162;SDS011;10739;52.198;20.908;2024-02-15T00:36:02;18.58;;;8.85;;
21162;SDS011;10739;52.198;20.908;2024-02-15T00:38:31;16.90;;;8.75;;
21162;SDS011;10739;52.198;20.908;2024-02-15T00:40:58;13.90;;;8.18;;
21162;SDS011;10739;52.198;20.908;2024-02-15T00:43:36;16.60;;;7.72;;
21162;SDS011;10739;52.198;20.908;2024-02-15T00:46:03;15.10;;;8.30;;
21162;SDS011;10739;52.198;20.908;2024-02-15T00:48:29;19.67;;;9.20;;
21162;SDS011;10739;52.198;20.908;2024-02-15T00:50:59;15.25;;;8.38;;
21162;SDS011;10739;52.198;20.908;2024-02-15T00:53:26;15.68;;;8.60;;
21162;SDS011;10739;52.198;20.908;2024-02-15T00:55:52;21.00;;;8.93;;
21162;SDS011;10739;52.198;20.908;2024-02-15T00:58:18;16.30;;;9.05;;
21162;SDS011;10739;52.198;20.908;2024-02-15T01:00:44;16.08;;;7.95;;
21162;SDS011;10739;52.198;20.908;2024-02-15T01:03:11;18.13;;;8.27;;
21162;SDS011;10739;52.198;20.908;2024-02-15T01:05:37;16.80;;;8.35;;
21162;SDS011;10739;52.198;20.908;2024-02-15T01:08:03;19.08;;;8.93;;
21162;SDS011;10739;52.198;20.908;2024-02-15T01:10:29;17.08;;;8.18;;
21162;SDS011;10739;52.198;20.908;2024-02-15T01:12:55;20.23;;;8.95;;
21162;SDS011;10739;52.198;20.908;2024-02-15T01:15:21;17.63;;;8.25;;
21162;SDS011;10739;52.198;20.908;2024-02-15T01:17:47;16.90;;;7.85;;
21162;SDS011;10739;52.198;20.908;2024-02-15T01:20:14;17.67;;;8.20;;
21162;SDS011;10739;52.198;20.908;2024-02-15T01:22:41;16.45;;;8.93;;
21162;SDS011;10739;52.198;20.908;2024-02-15T01:25:07;16.50;;;8.90;;
21162;SDS011;10739;52.198;20.908;2024-02-15T01:27:34;18.05;;;9.00;;
21162;SDS011;10739;52.198;20.908;2024-02-15T01:30:01;15.82;;;9.02;;
21162;SDS011;10739;52.198;20.908;2024-02-15T01:32:29;17.25;;;8.35;;
21162;SDS011;10739;52.198;20.908;2024-02-15T01:34:56;19.75;;;8.55;;
21162;SDS011;10739;52.198;20.908;2024-02-15T01:37:22;14.63;;;8.50;;
21162;SDS011;10739;52.198;20.908;2024-02-15T01:39:48;17.75;;;9.10;;
21162;SDS011;10739;52.198;20.908;2024-02-15T01:42:15;17.55;;;8.60;;
21162;SDS011;10739;52.198;20.908;2024-02-15T01:44:41;15.73;;;8.60;;
21162;SDS011;10739;52.198;20.908;2024-02-15T01:47:10;20.30;;;8.55;;
21162;SDS011;10739;52.198;20.908;2024-02-15T01:49:37;17.13;;;8.65;;
21162;SDS011;10739;52.198;20.908;2024-02-15T01:52:04;17.15;;;8.38;;
21162;SDS011;10739;52.198;20.908;2024-02-15T01:54:35;17.20;;;8.55;;
21162;SDS011;10739;52.198;20.908;2024-02-15T01:57:04;17.13;;;8.57;;
21162;SDS011;10739;52.198;20.908;2024-02-15T01:59:31;14.85;;;8.52;;
21162;SDS011;10739;52.198;20.908;2024-02-15T02:01:57;17.77;;;8.85;;
21162;SDS011;10739;52.198;20.908;2024-02-15T02:04:24;16.55;;;8.23;;
21162;SDS011;10739;52.198;20.908;2024-02-15T02:06:50;16.98;;;8.63;;
21162;SDS011;10739;52.198;20.908;2024-02-15T02:09:21;18.75;;;9.02;;
21162;SDS011;10739;52.198;20.908;2024-02-15T02:11:47;18.48;;;8.63;;
21162;SDS011;10739;52.198;20.908;2024-02-15T02:14:16;16.08;;;8.55;;
21162;SDS011;10739;52.198;20.908;2024-02-15T02:16:42;16.50;;;8.43;;
21162;SDS011;10739;52.198;20.908;2024-02-15T02:19:09;16.30;;;8.85;;
21162;SDS011;10739;52.198;20.908;2024-02-15T02:21:35;18.20;;;9.07;;
21162;SDS011;10739;52.198;20.908;2024-02-15T02:24:07;14.95;;;8.43;;
21162;SDS011;10739;52.198;20.908;2024-02-15T02:26:47;28.35;;;9.05;;
21162;SDS011;10739;52.198;20.908;2024-02-15T02:29:14;14.93;;;8.52;;
21162;SDS011;10739;52.198;20.908;2024-02-15T02:31:41;17.17;;;8.50;;
21162;SDS011;10739;52.198;20.908;2024-02-15T02:34:08;16.30;;;8.55;;
21162;SDS011;10739;52.198;20.908;2024-02-15T02:36:35;17.08;;;8.90;;
21162;SDS011;10739;52.198;20.908;2024-02-15T02:39:01;15.80;;;8.60;;
21162;SDS011;10739;52.198;20.908;2024-02-15T02:41:28;17.05;;;8.73;;
21162;SDS011;10739;52.198;20.908;2024-02-15T02:43:55;19.15;;;8.85;;
21162;SDS011;10739;52.198;20.908;2024-02-15T02:46:22;17.40;;;9.25;;
21162;SDS011;10739;52.198;20.908;2024-02-15T02:48:48;16.95;;;8.60;;
21162;SDS011;10739;52.198;20.908;2024-02-15T02:51:15;18.50;;;9.07;;
21162;SDS011;10739;52.198;20.908;2024-02-15T02:53:41;14.80;;;7.95;;
21162;SDS011;10739;52.198;20.908;2024-02-15T02:56:07;16.05;;;8.32;;
21162;SDS011;10739;52.198;20.908;2024-02-15T02:58:34;21.30;;;8.80;;
21162;SDS011;10739;52.198;20.908;2024-02-15T03:01:01;16.92;;;8.50;;
21162;SDS011;10739;52.198;20.908;2024-02-15T03:03:27;17.80;;;8.57;;
21162;SDS011;10739;52.198;20.908;2024-02-15T03:05:54;18.00;;;9.35;;
21162;SDS011;10739;52.198;20.908;2024-02-15T03:08:21;14.70;;;8.70;;
21162;SDS011;10739;52.198;20.908;2024-02-15T03:10:47;19.75;;;8.73;;
21162;SDS011;10739;52.198;20.908;2024-02-15T03:13:14;15.65;;;8.35;;
21162;SDS011;10739;52.198;20.908;2024-02-15T03:15:40;20.02;;;9.00;;
21162;SDS011;10739;52.198;20.908;2024-02-15T03:18:07;17.60;;;9.32;;
21162;SDS011;10739;52.198;20.908;2024-02-15T03:20:33;17.48;;;8.35;;
21162;SDS011;10739;52.198;20.908;2024-02-15T03:23:02;19.30;;;8.63;;
21162;SDS011;10739;52.198;20.908;2024-02-15T03:25:29;17.05;;;9.25;;
21162;SDS011;10739;52.198;20.908;2024-02-15T03:27:56;18.67;;;9.48;;
21162;SDS011;10739;52.198;20.908;2024-02-15T03:30:29;16.40;;;8.88;;
21162;SDS011;10739;52.198;20.908;2024-02-15T03:32:59;19.52;;;9.10;;
21162;SDS011;10739;52.198;20.908;2024-02-15T03:35:27;17.55;;;9.32;;
21162;SDS011;10739;52.198;20.908;2024-02-15T03:37:56;15.48;;;9.15;;
21162;SDS011;10739;52.198;20.908;2024-02-15T03:40:24;15.10;;;8.65;;
21162;SDS011;10739;52.198;20.908;2024-02-15T03:42:52;16.63;;;8.73;;
21162;SDS011;10739;52.198;20.908;2024-02-15T03:45:19;17.77;;;9.60;;
21162;SDS011;10739;52.198;20.908;2024-02-15T03:47:46;27.83;;;10.20;;
21162;SDS011;10739;52.198;20.908;2024-02-15T03:50:12;19.85;;;9.07;;
21162;SDS011;10739;52.198;20.908;2024-02-15T03:52:40;17.77;;;8.75;;
21162;SDS011;10739;52.198;20.908;2024-02-15T03:55:06;20.30;;;8.95;;
21162;SDS011;10739;52.198;20.908;2024-02-15T03:57:33;18.90;;;9.40;;
21162;SDS011;10739;52.198;20.908;2024-02-15T03:59:59;19.08;;;9.15;;
21162;SDS011;10739;52.198;20.908;2024-02-15T04:02:26;22.60;;;9.25;;
21162;SDS011;10739;52.198;20.908;2024-02-15T04:04:53;17.23;;;8.93;;
21162;SDS011;10739;52.198;20.908;2024-02-15T04:07:20;16.35;;;8.93;;
21162;SDS011;10739;52.198;20.908;2024-02-15T04:09:47;17.50;;;9.15;;
21162;SDS011;10739;52.198;20.908;2024-02-15T04:12:14;20.83;;;9.45;;
21162;SDS011;10739;52.198;20.908;2024-02-15T04:14:44;16.85;;;8.98;;
21162;SDS011;10739;52.198;20.908;2024-02-15T04:17:12;18.33;;;9.98;;
21162;SDS011;10739;52.198;20.908;2024-02-15T04:19:43;21.75;;;10.05;;
21162;SDS011;10739;52.198;20.908;2024-02-15T04:22:12;14.38;;;8.80;;
21162;SDS011;10739;52.198;20.908;2024-02-15T04:24:44;19.15;;;9.88;;
21162;SDS011;10739;52.198;20.908;2024-02-15T04:27:11;19.88;;;9.32;;
21162;SDS011;10739;52.198;20.908;2024-02-15T04:29:38;18.08;;;9.43;;
21162;SDS011;10739;52.198;20.908;2024-02-15T04:32:09;21.75;;;9.93;;
21162;SDS011;10739;52.198;20.908;2024-02-15T04:34:37;18.20;;;9.00;;
21162;SDS011;10739;52.198;20.908;2024-02-15T04:37:04;18.55;;;9.60;;
21162;SDS011;10739;52.198;20.908;2024-02-15T04:39:33;17.95;;;9.38;;
21162;SDS011;10739;52.198;20.908;2024-02-15T04:42:03;18.00;;;9.43;;
21162;SDS011;10739;52.198;20.908;2024-02-15T04:44:31;18.55;;;9.00;;
21162;SDS011;10739;52.198;20.908;2024-02-15T04:47:00;20.95;;;10.02;;
21162;SDS011;10739;52.198;20.908;2024-02-15T04:49:29;21.05;;;9.95;;
21162;SDS011;10739;52.198;20.908;2024-02-15T04:51:55;15.07;;;9.05;;
21162;SDS011;10739;52.198;20.908;2024-02-15T04:54:27;21.58;;;9.60;;
21162;SDS011;10739;52.198;20.908;2024-02-15T04:56:54;19.67;;;9.00;;
21162;SDS011;10739;52.198;20.908;2024-02-15T04:59:22;19.83;;;9.60;;
21162;SDS011;10739;52.198;20.908;2024-02-15T05:01:54;21.02;;;10.05;;
21162;SDS011;10739;52.198;20.908;2024-02-15T05:04:21;17.40;;;9.32;;
21162;SDS011;10739;52.198;20.908;2024-02-15T05:06:50;16.15;;;8.85;;
21162;SDS011;10739;52.198;20.908;2024-02-15T05:09:16;15.25;;;9.43;;
21162;SDS011;10739;52.198;20.908;2024-02-15T05:11:44;17.40;;;9.10;;
21162;SDS011;10739;52.198;20.908;2024-02-15T05:14:14;22.65;;;9.25;;
21162;SDS011;10739;52.198;20.908;2024-02-15T05:16:49;17.33;;;9.40;;
21162;SDS011;10739;52.198;20.908;2024-02-15T05:19:16;18.42;;;9.90;;
21162;SDS011;10739;52.198;20.908;2024-02-15T05:21:43;19.55;;;9.07;;
21162;SDS011;10739;52.198;20.908;2024-02-15T05:24:14;19.38;;;9.80;;
21162;SDS011;10739;52.198;20.908;2024-02-15T05:26:45;18.98;;;9.32;;
21162;SDS011;10739;52.198;20.908;2024-02-15T05:29:15;18.38;;;9.48;;
21162;SDS011;10739;52.198;20.908;2024-02-15T05:31:41;17.55;;;9.75;;
21162;SDS011;10739;52.198;20.908;2024-02-15T05:34:09;21.77;;;9.90;;
21162;SDS011;10739;52.198;20.908;2024-02-15T05:36:37;24.90;;;10.57;;
21162;SDS011;10739;52.198;20.908;2024-02-15T05:39:03;16.77;;;9.88;;
21162;SDS011;10739;52.198;20.908;2024-02-15T05:41:30;19.05;;;10.32;;
21162;SDS011;10739;52.198;20.908;2024-02-15T05:44:00;17.60;;;10.25;;
21162;SDS011;10739;52.198;20.908;2024-02-15T05:46:26;18.17;;;9.35;;
21162;SDS011;10739;52.198;20.908;2024-02-15T05:48:56;18.60;;;9.52;;
21162;SDS011;10739;52.198;20.908;2024-02-15T05:51:22;19.80;;;9.98;;
21162;SDS011;10739;52.198;20.908;2024-02-15T05:53:49;21.27;;;10.15;;
21162;SDS011;10739;52.198;20.908;2024-02-15T05:56:15;19.38;;;11.38;;
21162;SDS011;10739;52.198;20.908;2024-02-15T05:58:42;19.38;;;11.35;;
21162;SDS011;10739;52.198;20.908;2024-02-15T06:01:08;22.48;;;11.38;;
21162;SDS011;10739;52.198;20.908;2024-02-15T06:03:37;21.83;;;10.98;;
21162;SDS011;10739;52.198;20.908;2024-02-15T06:06:04;23.85;;;11.93;;
21162;SDS011;10739;52.198;20.908;2024-02-15T06:08:32;23.58;;;12.65;;
21162;SDS011;10739;52.198;20.908;2024-02-15T06:10:59;24.02;;;12.75;;
21162;SDS011;10739;52.198;20.908;2024-02-15T06:13:26;21.92;;;12.55;;
21162;SDS011;10739;52.198;20.908;2024-02-15T06:15:53;22.88;;;12.15;;
21162;SDS011;10739;52.198;20.908;2024-02-15T06:18:20;25.15;;;13.93;;
21162;SDS011;10739;52.198;20.908;2024-02-15T06:20:53;27.33;;;13.50;;
21162;SDS011;10739;52.198;20.908;2024-02-15T06:23:23;26.52;;;14.30;;
21162;SDS011;10739;52.198;20.908;2024-02-15T06:25:51;27.63;;;15.25;;
21162;SDS011;10739;52.198;20.908;2024-02-15T06:28:19;24.55;;;15.43;;
21162;SDS011;10739;52.198;20.908;2024-02-15T06:31:07;27.83;;;15.48;;
21162;SDS011;10739;52.198;20.908;2024-02-15T06:33:52;25.90;;;15.15;;
21162;SDS011;10739;52.198;20.908;2024-02-15T06:36:56;31.00;;;15.90;;
21162;SDS011;10739;52.198;20.908;2024-02-15T06:39:41;35.63;;;17.98;;
21162;SDS011;10739;52.198;20.908;2024-02-15T06:42:08;27.95;;;16.30;;
21162;SDS011;10739;52.198;20.908;2024-02-15T06:44:36;39.55;;;19.73;;
21162;SDS011;10739;52.198;20.908;2024-02-15T06:47:06;37.80;;;18.80;;
21162;SDS011;10739;52.198;20.908;2024-02-15T06:49:32;31.65;;;18.08;;
21162;SDS011;10739;52.198;20.908;2024-02-15T06:51:59;34.17;;;18.30;;
21162;SDS011;10739;52.198;20.908;2024-02-15T06:54:27;34.22;;;20.27;;
21162;SDS011;10739;52.198;20.908;2024-02-15T06:56:53;34.90;;;21.05;;
21162;SDS011;10739;52.198;20.908;2024-02-15T06:59:20;35.97;;;20.25;;
21162;SDS011;10739;52.198;20.908;2024-02-15T07:01:48;35.15;;;21.40;;
21162;SDS011;10739;52.198;20.908;2024-02-15T07:04:18;41.35;;;22.73;;
21162;SDS011;10739;52.198;20.908;2024-02-15T07:06:45;40.33;;;23.42;;
21162;SDS011;10739;52.198;20.908;2024-02-15T07:09:14;41.70;;;22.73;;
21162;SDS011;10739;52.198;20.908;2024-02-15T07:11:41;43.38;;;24.33;;
21162;SDS011;10739;52.198;20.908;2024-02-15T07:14:07;38.72;;;23.80;;
21162;SDS011;10739;52.198;20.908;2024-02-15T07:16:34;38.67;;;23.55;;
21162;SDS011;10739;52.198;20.908;2024-02-15T07:19:00;40.58;;;22.98;;
21162;SDS011;10739;52.198;20.908;2024-02-15T07:21:30;42.20;;;25.17;;
21162;SDS011;10739;52.198;20.908;2024-02-15T07:23:57;42.78;;;25.10;;
21162;SDS011;10739;52.198;20.908;2024-02-15T07:26:24;40.97;;;24.13;;
21162;SDS011;10739;52.198;20.908;2024-02-15T07:28:54;41.05;;;23.98;;
21162;SDS011;10739;52.198;20.908;2024-02-15T07:31:21;44.03;;;25.15;;
21162;SDS011;10739;52.198;20.908;2024-02-15T07:33:48;42.95;;;26.33;;
21162;SDS011;10739;52.198;20.908;2024-02-15T07:36:19;43.67;;;26.85;;
21162;SDS011;10739;52.198;20.908;2024-02-15T07:38:47;46.15;;;25.83;;
21162;SDS011;10739;52.198;20.908;2024-02-15T07:41:14;41.28;;;26.17;;
21162;SDS011;10739;52.198;20.908;2024-02-15T07:43:45;45.58;;;26.98;;
21162;SDS011;10739;52.198;20.908;2024-02-15T07:46:12;42.15;;;26.48;;
21162;SDS011;10739;52.198;20.908;2024-02-15T07:48:39;49.58;;;28.95;;
21162;SDS011;10739;52.198;20.908;2024-02-15T07:51:10;43.22;;;26.75;;
21162;SDS011;10739;52.198;20.908;2024-02-15T07:53:42;46.10;;;27.83;;
21162;SDS011;10739;52.198;20.908;2024-02-15T07:56:08;46.55;;;29.52;;
21162;SDS011;10739;52.198;20.908;2024-02-15T07:58:41;49.10;;;28.85;;
21162;SDS011;10739;52.198;20.908;2024-02-15T08:03:40;47.20;;;28.92;;
21162;SDS011;10739;52.198;20.908;2024-02-15T08:06:11;52.30;;;31.40;;
21162;SDS011;10739;52.198;20.908;2024-02-15T08:08:42;50.72;;;31.50;;
21162;SDS011;10739;52.198;20.908;2024-02-15T08:11:12;53.40;;;31.83;;
21162;SDS011;10739;52.198;20.908;2024-02-15T08:13:50;48.83;;;32.47;;
21162;SDS011;10739;52.198;20.908;2024-02-15T08:16:30;56.03;;;33.38;;
21162;SDS011;10739;52.198;20.908;2024-02-15T08:19:03;49.30;;;32.50;;
21162;SDS011;10739;52.198;20.908;2024-02-15T08:21:34;60.72;;;33.53;;
21162;SDS011;10739;52.198;20.908;2024-02-15T08:24:08;59.30;;;31.75;;
21162;SDS011;10739;52.198;20.908;2024-02-15T08:26:38;50.92;;;30.40;;
21162;SDS011;10739;52.198;20.908;2024-02-15T08:29:06;67.83;;;34.20;;
21162;SDS011;10739;52.198;20.908;2024-02-15T08:31:32;50.13;;;32.03;;
21162;SDS011;10739;52.198;20.908;2024-02-15T08:33:59;61.47;;;32.50;;
21162;SDS011;10739;52.198;20.908;2024-02-15T08:36:27;53.92;;;33.42;;
21162;SDS011;10739;52.198;20.908;2024-02-15T08:38:55;57.63;;;34.20;;
21162;SDS011;10739;52.198;20.908;2024-02-15T08:41:22;52.10;;;33.55;;
21162;SDS011;10739;52.198;20.908;2024-02-15T08:43:52;60.20;;;33.65;;
21162;SDS011;10739;52.198;20.908;2024-02-15T08:46:19;58.67;;;34.97;;
21162;SDS011;10739;52.198;20.908;2024-02-15T08:48:46;56.25;;;35.25;;
21162;SDS011;10739;52.198;20.908;2024-02-15T08:51:12;62.10;;;36.00;;
21162;SDS011;10739;52.198;20.908;2024-02-15T08:53:38;60.45;;;34.58;;
21162;SDS011;10739;52.198;20.908;2024-02-15T08:56:04;64.55;;;36.08;;
21162;SDS011;10739;52.198;20.908;2024-02-15T08:58:31;56.75;;;35.13;;
21162;SDS011;10739;52.198;20.908;2024-02-15T09:00:57;59.30;;;35.00;;
21162;SDS011;10739;52.198;20.908;2024-02-15T09:03:24;68.97;;;37.22;;
21162;SDS011;10739;52.198;20.908;2024-02-15T09:05:50;57.92;;;34.72;;
21162;SDS011;10739;52.198;20.908;2024-02-15T09:08:16;59.65;;;35.42;;
21162;SDS011;10739;52.198;20.908;2024-02-15T09:10:46;58.92;;;35.30;;
21162;SDS011;10739;52.198;20.908;2024-02-15T09:13:15;65.50;;;35.70;;
21162;SDS011;10739;52.198;20.908;2024-02-15T09:15:41;58.60;;;36.53;;
21162;SDS011;10739;52.198;20.908;2024-02-15T09:18:08;60.95;;;36.78;;
21162;SDS011;10739;52.198;20.908;2024-02-15T09:20:37;68.80;;;37.35;;
21162;SDS011;10739;52.198;20.908;2024-02-15T09:23:05;56.38;;;35.05;;
21162;SDS011;10739;52.198;20.908;2024-02-15T09:25:37;60.95;;;35.03;;
21162;SDS011;10739;52.198;20.908;2024-02-15T09:28:03;66.13;;;36.35;;
21162;SDS011;10739;52.198;20.908;2024-02-15T09:30:30;57.00;;;34.50;;
21162;SDS011;10739;52.198;20.908;2024-02-15T09:32:57;56.50;;;34.20;;
21162;SDS011;10739;52.198;20.908;2024-02-15T09:35:23;49.92;;;33.20;;
21162;SDS011;10739;52.198;20.908;2024-02-15T09:37:50;54.60;;;34.60;;
21162;SDS011;10739;52.198;20.908;2024-02-15T09:40:18;57.80;;;35.05;;
21162;SDS011;10739;52.198;20.908;2024-02-15T09:42:45;59.45;;;35.05;;
21162;SDS011;10739;52.198;20.908;2024-02-15T09:45:12;53.75;;;34.08;;
21162;SDS011;10739;52.198;20.908;2024-02-15T09:47:43;63.33;;;35.05;;
21162;SDS011;10739;52.198;20.908;2024-02-15T09:50:11;54.15;;;33.90;;
21162;SDS011;10739;52.198;20.908;2024-02-15T09:52:45;57.88;;;33.95;;
21162;SDS011;10739;52.198;20.908;2024-02-15T09:55:22;52.72;;;32.28;;
21162;SDS011;10739;52.198;20.908;2024-02-15T09:57:50;62.75;;;35.65;;
21162;SDS011;10739;52.198;20.908;2024-02-15T10:00:17;59.13;;;34.85;;
21162;SDS011;10739;52.198;20.908;2024-02-15T10:02:44;59.50;;;34.30;;
21162;SDS011;10739;52.198;20.908;2024-02-15T10:05:13;55.00;;;35.28;;
21162;SDS011;10739;52.198;20.908;2024-02-15T10:07:40;59.25;;;34.20;;
21162;SDS011;10739;52.198;20.908;2024-02-15T10:10:22;61.03;;;36.25;;
21162;SDS011;10739;52.198;20.908;2024-02-15T10:12:52;65.70;;;36.05;;
21162;SDS011;10739;52.198;20.908;2024-02-15T10:15:36;63.08;;;38.15;;
21162;SDS011;10739;52.198;20.908;2024-02-15T10:18:04;68.50;;;39.17;;
21162;SDS011;10739;52.198;20.908;2024-02-15T10:20:40;59.78;;;36.05;;
21162;SDS011;10739;52.198;20.908;2024-02-15T10:23:22;62.70;;;37.63;;
21162;SDS011;10739;52.198;20.908;2024-02-15T10:25:48;64.70;;;38.55;;
21162;SDS011;10739;52.198;20.908;2024-02-15T10:28:14;73.68;;;40.80;;
21162;SDS011;10739;52.198;20.908;2024-02-15T10:30:48;71.90;;;41.72;;
21162;SDS011;10739;52.198;20.908;2024-02-15T10:33:19;72.40;;;39.30;;
21162;SDS011;10739;52.198;20.908;2024-02-15T10:36:04;69.38;;;40.60;;
21162;SDS011;10739;52.198;20.908;2024-02-15T10:38:36;68.57;;;41.55;;
21162;SDS011;10739;52.198;20.908;2024-02-15T10:41:03;63.28;;;40.72;;
21162;SDS011;10739;52.198;20.908;2024-02-15T10:43:32;62.97;;;40.08;;
21162;SDS011;10739;52.198;20.908;2024-02-15T10:46:00;67.28;;;40.72;;
21162;SDS011;10739;52.198;20.908;2024-02-15T10:48:26;63.95;;;40.85;;
21162;SDS011;10739;52.198;20.908;2024-02-15T10:50:56;67.05;;;40.63;;
21162;SDS011;10739;52.198;20.908;2024-02-15T10:55:53;69.65;;;41.20;;
21162;SDS011;10739;52.198;20.908;2024-02-15T10:59:25;71.50;;;41.05;;
21162;SDS011;10739;52.198;20.908;2024-02-15T11:01:46;64.80;;;41.38;;
21162;SDS011;10739;52.198;20.908;2024-02-15T11:04:15;69.63;;;41.70;;
21162;SDS011;10739;52.198;20.908;2024-02-15T11:06:50;68.30;;;42.35;;
21162;SDS011;10739;52.198;20.908;2024-02-15T11:09:21;59.97;;;39.92;;
21162;SDS011;10739;52.198;20.908;2024-02-15T11:11:48;63.63;;;39.60;;
21162;SDS011;10739;52.198;20.908;2024-02-15T11:14:31;66.03;;;41.55;;
21162;SDS011;10739;52.198;20.908;2024-02-15T11:17:01;63.58;;;42.95;;
21162;SDS011;10739;52.198;20.908;2024-02-15T11:21:57;67.28;;;40.72;;
21162;SDS011;10739;52.198;20.908;2024-02-15T11:24:29;69.68;;;40.72;;
21162;SDS011;10739;52.198;20.908;2024-02-15T11:27:02;65.93;;;40.20;;
21162;SDS011;10739;52.198;20.908;2024-02-15T11:32:34;62.70;;;39.78;;
21162;SDS011;10739;52.198;20.908;2024-02-15T11:35:24;73.40;;;42.90;;
21162;SDS011;10739;52.198;20.908;2024-02-15T11:37:54;68.13;;;42.67;;
21162;SDS011;10739;52.198;20.908;2024-02-15T11:40:59;64.65;;;44.00;;
21162;SDS011;10739;52.198;20.908;2024-02-15T11:46:13;64.22;;;41.83;;
21162;SDS011;10739;52.198;20.908;2024-02-15T11:48:40;67.20;;;43.15;;
21162;SDS011;10739;52.198;20.908;2024-02-15T11:51:06;67.18;;;42.05;;
21162;SDS011;10739;52.198;20.908;2024-02-15T11:53:36;61.53;;;40.78;;
21162;SDS011;10739;52.198;20.908;2024-02-15T11:56:03;60.03;;;40.22;;
21162;SDS011;10739;52.198;20.908;2024-02-15T11:58:30;62.15;;;39.28;;
21162;SDS011;10739;52.198;20.908;2024-02-15T12:01:17;61.00;;;41.50;;
21162;SDS011;10739;52.198;20.908;2024-02-15T12:04:02;60.60;;;38.00;;
21162;SDS011;10739;52.198;20.908;2024-02-15T12:06:48;54.88;;;36.13;;
21162;SDS011;10739;52.198;20.908;2024-02-15T12:09:33;57.97;;;36.58;;
21162;SDS011;10739;52.198;20.908;2024-02-15T12:12:18;57.20;;;36.80;;
21162;SDS011;10739;52.198;20.908;2024-02-15T12:15:03;51.70;;;35.47;;
21162;SDS011;10739;52.198;20.908;2024-02-15T12:17:48;57.75;;;35.72;;
21162;SDS011;10739;52.198;20.908;2024-02-15T12:20:33;50.25;;;35.08;;
21162;SDS011;10739;52.198;20.908;2024-02-15T12:22:59;51.05;;;34.33;;
21162;SDS011;10739;52.198;20.908;2024-02-15T12:25:26;48.40;;;34.28;;
21162;SDS011;10739;52.198;20.908;2024-02-15T12:27:53;51.95;;;34.70;;
21162;SDS011;10739;52.198;20.908;2024-02-15T12:30:25;52.15;;;34.63;;
21162;SDS011;10739;52.198;20.908;2024-02-15T12:33:12;53.45;;;33.17;;
21162;SDS011;10739;52.198;20.908;2024-02-15T12:35:44;50.13;;;33.08;;
21162;SDS011;10739;52.198;20.908;2024-02-15T12:38:14;46.70;;;32.88;;
21162;SDS011;10739;52.198;20.908;2024-02-15T12:40:41;49.75;;;33.22;;
21162;SDS011;10739;52.198;20.908;2024-02-15T12:43:11;49.95;;;33.85;;
21162;SDS011;10739;52.198;20.908;2024-02-15T12:45:39;57.83;;;34.15;;
21162;SDS011;10739;52.198;20.908;2024-02-15T12:48:07;53.78;;;32.17;;
21162;SDS011;10739;52.198;20.908;2024-02-15T12:50:34;50.25;;;33.17;;
21162;SDS011;10739;52.198;20.908;2024-02-15T12:53:01;45.50;;;32.33;;
21162;SDS011;10739;52.198;20.908;2024-02-15T12:55:32;57.28;;;33.35;;
21162;SDS011;10739;52.198;20.908;2024-02-15T12:58:01;54.20;;;33.50;;
21162;SDS011;10739;52.198;20.908;2024-02-15T13:00:30;51.17;;;33.35;;
21162;SDS011;10739;52.198;20.908;2024-02-15T13:02:59;50.42;;;33.50;;
21162;SDS011;10739;52.198;20.908;2024-02-15T13:05:28;49.38;;;33.67;;
21162;SDS011;10739;52.198;20.908;2024-02-15T13:07:56;48.53;;;32.13;;
21162;SDS011;10739;52.198;20.908;2024-02-15T13:10:31;50.78;;;32.35;;
21162;SDS011;10739;52.198;20.908;2024-02-15T13:12:58;52.25;;;31.77;;
21162;SDS011;10739;52.198;20.908;2024-02-15T13:15:24;50.88;;;32.92;;
21162;SDS011;10739;52.198;20.908;2024-02-15T13:17:58;53.03;;;32.05;;
21162;SDS011;10739;52.198;20.908;2024-02-15T13:20:26;46.55;;;30.63;;
21162;SDS011;10739;52.198;20.908;2024-02-15T13:22:57;53.75;;;31.20;;
21162;SDS011;10739;52.198;20.908;2024-02-15T13:25:29;49.55;;;30.85;;
21162;SDS011;10739;52.198;20.908;2024-02-15T13:27:55;52.22;;;29.58;;
21162;SDS011;10739;52.198;20.908;2024-02-15T13:30:25;48.25;;;30.52;;
21162;SDS011;10739;52.198;20.908;2024-02-15T13:32:53;48.03;;;29.35;;
21162;SDS011;10739;52.198;20.908;2024-02-15T13:35:20;47.85;;;30.52;;
21162;SDS011;10739;52.198;20.908;2024-02-15T13:37:55;52.80;;;31.45;;
21162;SDS011;10739;52.198;20.908;2024-02-15T13:40:26;48.42;;;30.55;;
21162;SDS011;10739;52.198;20.908;2024-02-15T13:42:56;45.40;;;28.93;;
21162;SDS011;10739;52.198;20.908;2024-02-15T13:45:24;49.25;;;29.67;;
21162;SDS011;10739;52.198;20.908;2024-02-15T13:48:02;45.08;;;28.92;;
21162;SDS011;10739;52.198;20.908;2024-02-15T13:50:32;40.83;;;27.17;;
21162;SDS011;10739;52.198;20.908;2024-02-15T13:52:59;42.80;;;27.20;;
21162;SDS011;10739;52.198;20.908;2024-02-15T13:55:27;42.00;;;27.50;;
21162;SDS011;10739;52.198;20.908;2024-02-15T13:57:54;52.78;;;27.42;;
21162;SDS011;10739;52.198;20.908;2024-02-15T14:00:26;49.33;;;27.38;;
21162;SDS011;10739;52.198;20.908;2024-02-15T14:02:57;47.15;;;26.92;;
21162;SDS011;10739;52.198;20.908;2024-02-15T14:05:27;46.67;;;27.30;;
21162;SDS011;10739;52.198;20.908;2024-02-15T14:07:58;43.90;;;27.95;;
21162;SDS011;10739;52.198;20.908;2024-02-15T14:10:28;41.88;;;27.60;;
21162;SDS011;10739;52.198;20.908;2024-02-15T14:12:56;44.65;;;26.10;;
21162;SDS011;10739;52.198;20.908;2024-02-15T14:15:30;44.13;;;25.77;;
21162;SDS011;10739;52.198;20.908;2024-02-15T14:18:05;38.83;;;24.67;;
21162;SDS011;10739;52.198;20.908;2024-02-15T14:20:33;40.75;;;25.98;;
21162;SDS011;10739;52.198;20.908;2024-02-15T14:22:59;41.70;;;25.27;;
21162;SDS011;10739;52.198;20.908;2024-02-15T14:25:30;43.35;;;24.10;;
21162;SDS011;10739;52.198;20.908;2024-02-15T14:27:57;38.28;;;24.55;;
21162;SDS011;10739;52.198;20.908;2024-02-15T14:30:24;39.85;;;24.48;;
21162;SDS011;10739;52.198;20.908;2024-02-15T14:33:09;39.90;;;24.92;;
21162;SDS011;10739;52.198;20.908;2024-02-15T14:35:41;40.55;;;23.58;;
21162;SDS011;10739;52.198;20.908;2024-02-15T14:38:08;41.22;;;25.30;;
21162;SDS011;10739;52.198;20.908;2024-02-15T14:40:37;37.90;;;22.80;;